createdAt,value
2018-08-13T00:00:18.506Z,18.80
2018-08-13T00:02:45.548Z,18.80
2018-08-13T00:05:12.545Z,18.70
2018-08-13T00:07:39.539Z,18.80
2018-08-13T00:10:06.768Z,18.90
2018-08-13T00:12:33.776Z,18.90
2018-08-13T00:15:00.776Z,18.70
2018-08-13T00:17:27.816Z,18.70
2018-08-13T00:19:54.824Z,18.70
2018-08-13T00:22:21.831Z,18.80
2018-08-13T00:24:48.895Z,18.90
2018-08-13T00:29:43.808Z,18.90
2018-08-13T00:39:43.588Z,18.80
2018-08-13T00:42:10.569Z,18.80
2018-08-13T00:44:37.560Z,18.80
2018-08-13T00:47:05.434Z,18.70
2018-08-13T00:49:32.427Z,18.60
2018-08-13T00:51:59.410Z,18.70
2018-08-13T00:54:26.480Z,18.60
2018-08-13T00:56:54.329Z,18.40
2018-08-13T00:59:21.315Z,18.30
2018-08-13T01:01:48.361Z,18.30
2018-08-13T01:04:15.363Z,18.30
2018-08-13T01:06:42.363Z,18.30
2018-08-13T01:09:09.441Z,18.40
2018-08-13T01:11:36.453Z,18.50
2018-08-13T01:14:04.408Z,18.60
2018-08-13T01:16:31.463Z,18.60
2018-08-13T01:18:59.294Z,18.60
2018-08-13T01:21:26.301Z,18.70
2018-08-13T01:23:54.212Z,18.60
2018-08-13T01:26:21.209Z,18.60
2018-08-13T01:28:48.213Z,18.60
2018-08-13T01:31:15.246Z,18.50
2018-08-13T01:33:42.243Z,18.60
2018-08-13T01:36:09.238Z,18.60
2018-08-13T01:38:36.309Z,18.50
2018-08-13T01:41:04.052Z,18.40
2018-08-13T01:43:31.069Z,18.40
2018-08-13T01:45:58.114Z,18.60
2018-08-13T01:48:25.147Z,18.60
2018-08-13T01:55:43.565Z,18.60
2018-08-13T01:58:10.583Z,18.30
2018-08-13T02:00:38.910Z,18.50
2018-08-13T02:03:06.906Z,18.30
2018-08-13T02:05:34.864Z,18.30
2018-08-13T02:10:29.018Z,18.20
2018-08-13T02:12:56.010Z,18.00
2018-08-13T02:17:51.024Z,18.20
2018-08-13T02:20:17.979Z,18.20
2018-08-13T02:22:45.965Z,18.20
2018-08-13T02:25:13.011Z,18.30
2018-08-13T02:27:40.015Z,18.20
2018-08-13T02:30:07.025Z,18.20
2018-08-13T02:32:34.081Z,18.30
2018-08-13T02:35:01.248Z,18.20
2018-08-13T02:37:29.073Z,18.30
2018-08-13T02:39:56.651Z,18.30
2018-08-13T02:42:23.799Z,18.30
2018-08-13T02:44:50.799Z,18.30
2018-08-13T02:47:17.840Z,18.30
2018-08-13T02:49:44.856Z,18.30
2018-08-13T02:52:11.862Z,18.20
2018-08-13T02:54:38.964Z,18.10
2018-08-13T02:57:06.916Z,18.10
2018-08-13T02:59:33.929Z,18.20
2018-08-13T03:02:00.995Z,18.20
2018-08-13T03:07:07.492Z,17.80
2018-08-13T03:09:34.491Z,17.70
2018-08-13T03:12:02.430Z,17.60
2018-08-13T03:14:30.190Z,17.50
2018-08-13T03:16:58.158Z,17.40
2018-08-13T03:19:25.170Z,17.40
2018-08-13T03:21:52.264Z,17.30
2018-08-13T03:24:19.341Z,17.20
2018-08-13T03:26:46.351Z,17.20
2018-08-13T03:29:14.033Z,17.20
2018-08-13T03:31:41.040Z,17.20
2018-08-13T03:36:36.060Z,17.30
2018-08-13T03:39:04.022Z,17.40
2018-08-13T03:43:58.689Z,17.40
2018-08-13T03:46:25.689Z,17.30
2018-08-13T03:48:52.687Z,17.20
2018-08-13T03:51:20.618Z,17.20
2018-08-13T03:53:47.767Z,17.20
2018-08-13T03:56:15.189Z,17.20
2018-08-13T03:58:42.243Z,17.20
2018-08-13T04:01:09.243Z,17.20
2018-08-13T04:03:36.264Z,17.30
2018-08-13T04:06:03.329Z,17.30
2018-08-13T04:08:31.141Z,17.30
2018-08-13T04:10:58.136Z,17.30
2018-08-13T04:13:26.064Z,17.40
2018-08-13T04:15:53.066Z,17.40
2018-08-13T04:20:58.591Z,17.50
2018-08-13T04:23:25.674Z,17.50
2018-08-13T04:25:52.681Z,17.60
2018-08-13T04:28:19.834Z,17.50
2018-08-13T04:30:46.838Z,17.60
2018-08-13T04:33:13.837Z,17.70
2018-08-13T04:35:40.889Z,17.70
2018-08-13T04:38:07.902Z,17.60
2018-08-13T04:40:34.904Z,17.40
2018-08-13T04:43:01.981Z,17.30
2018-08-13T04:45:29.085Z,17.40
2018-08-13T04:47:56.078Z,17.20
2018-08-13T04:50:23.514Z,17.30
2018-08-13T04:52:51.336Z,17.20
2018-08-13T04:55:18.328Z,17.30
2018-08-13T04:57:45.413Z,17.30
2018-08-13T05:00:12.414Z,17.20
2018-08-13T05:02:39.457Z,17.40
2018-08-13T05:05:06.469Z,17.30
2018-08-13T05:07:33.471Z,17.30
2018-08-13T05:10:00.461Z,17.30
2018-08-13T05:12:27.532Z,17.60
2018-08-13T05:14:54.522Z,17.90
2018-08-13T05:17:21.826Z,18.00
2018-08-13T05:19:48.876Z,18.10
2018-08-13T05:22:15.881Z,18.30
2018-08-13T05:24:43.369Z,18.40
2018-08-13T05:27:10.456Z,18.60
2018-08-13T05:29:37.452Z,18.60
2018-08-13T05:32:04.482Z,19.00
2018-08-13T05:34:31.609Z,18.90
2018-08-13T05:36:58.712Z,19.00
2018-08-13T05:42:04.259Z,19.20
2018-08-13T05:44:31.611Z,19.30
2018-08-13T05:46:59.585Z,19.30
2018-08-13T05:49:26.638Z,19.30
2018-08-13T05:51:53.634Z,19.20
2018-08-13T05:54:20.637Z,19.50
2018-08-13T05:56:49.274Z,19.40
2018-08-13T05:59:16.002Z,19.50
2018-08-13T06:01:43.869Z,19.50
2018-08-13T06:04:10.940Z,19.30
2018-08-13T06:06:37.940Z,19.20
2018-08-13T06:09:04.934Z,19.00
2018-08-13T06:11:32.017Z,19.30
2018-08-13T06:13:59.840Z,19.60
2018-08-13T06:16:26.832Z,19.50
2018-08-13T06:18:53.898Z,19.70
2018-08-13T06:21:20.927Z,19.80
2018-08-13T06:23:47.920Z,19.90
2018-08-13T06:26:14.994Z,19.90
2018-08-13T06:31:09.123Z,20.20
2018-08-13T06:33:36.164Z,20.10
2018-08-13T06:36:03.165Z,20.30
2018-08-13T06:41:09.271Z,19.80
2018-08-13T06:43:36.279Z,19.90
2018-08-13T06:46:03.290Z,20.60
2018-08-13T06:48:30.487Z,20.90
2018-08-13T06:50:57.502Z,21.30
2018-08-13T06:53:24.612Z,21.40
2018-08-13T06:55:51.655Z,21.50
2018-08-13T06:58:19.521Z,21.20
2018-08-13T07:00:46.538Z,21.40
2018-08-13T07:03:13.688Z,21.90
2018-08-13T07:05:40.690Z,21.60
2018-08-13T07:08:07.712Z,21.30
2018-08-13T07:10:35.979Z,21.30
2018-08-13T07:13:03.781Z,21.00
2018-08-13T07:20:36.987Z,22.40
2018-08-13T07:23:03.980Z,22.10
2018-08-13T07:30:25.244Z,22.20
2018-08-13T07:32:52.873Z,22.60
2018-08-13T07:35:19.885Z,22.90
2018-08-13T07:37:47.503Z,23.20
2018-08-13T07:40:15.526Z,23.60
2018-08-13T07:42:42.543Z,23.70
2018-08-13T07:45:10.508Z,23.90
2018-08-13T07:47:37.576Z,24.30
2018-08-13T07:50:04.577Z,24.30
2018-08-13T07:52:31.588Z,24.60
2018-08-13T07:54:58.641Z,24.10
2018-08-13T07:57:25.657Z,23.80
2018-08-13T07:59:53.662Z,24.00
2018-08-13T08:02:20.696Z,24.50
2018-08-13T08:04:48.541Z,24.00
2018-08-13T08:07:15.557Z,24.40
2018-08-13T08:09:42.618Z,24.90
2018-08-13T08:12:10.461Z,25.40
2018-08-13T08:14:37.484Z,25.60
2018-08-13T08:21:59.726Z,24.70
2018-08-13T08:24:26.796Z,24.90
2018-08-13T08:26:53.796Z,25.20
2018-08-13T08:29:20.892Z,25.40
2018-08-13T08:31:47.892Z,25.60
2018-08-13T08:36:53.983Z,26.40
2018-08-13T08:39:21.667Z,26.60
2018-08-13T08:41:49.489Z,26.50
2018-08-13T08:44:17.533Z,26.60
2018-08-13T08:46:44.558Z,26.40
2018-08-13T08:49:11.569Z,26.30
2018-08-13T08:51:38.621Z,26.80
2018-08-13T08:54:05.635Z,27.00
2018-08-13T08:56:32.644Z,27.00
2018-08-13T08:58:59.720Z,27.20
2018-08-13T09:01:26.738Z,27.50
2018-08-13T09:03:54.161Z,27.70
2018-08-13T09:06:21.235Z,27.80
2018-08-13T09:08:48.255Z,27.90
2018-08-13T09:13:42.480Z,27.70
2018-08-13T09:16:09.512Z,27.90
2018-08-13T09:18:41.327Z,28.10
2018-08-13T09:21:20.382Z,27.70
2018-08-13T09:23:59.213Z,26.90
2018-08-13T09:29:22.309Z,27.10
2018-08-13T09:34:37.711Z,27.40
2018-08-13T09:37:04.772Z,27.80
2018-08-13T09:39:31.827Z,28.50
2018-08-13T09:41:59.820Z,29.20
2018-08-13T09:49:21.103Z,29.50
2018-08-13T09:51:48.462Z,30.00
2018-08-13T09:54:16.433Z,30.10
2018-08-13T09:56:43.465Z,30.40
2018-08-13T09:59:11.531Z,30.40
2018-08-13T10:01:38.573Z,30.70
2018-08-13T10:04:06.537Z,30.70
2018-08-13T10:06:33.608Z,30.80
2018-08-13T10:09:00.633Z,30.70
2018-08-13T10:11:28.509Z,30.60
2018-08-13T10:13:55.587Z,31.20
2018-08-13T10:16:22.613Z,30.20
2018-08-13T10:18:49.948Z,30.40
2018-08-13T10:21:17.019Z,31.20
2018-08-13T10:23:44.126Z,31.70
2018-08-13T10:26:12.134Z,32.50
2018-08-13T10:28:40.461Z,32.60
2018-08-13T10:31:08.298Z,32.60
2018-08-13T10:33:36.127Z,32.90
2018-08-13T10:36:03.199Z,33.00
2018-08-13T10:38:30.593Z,32.80
2018-08-13T10:40:57.609Z,32.70
2018-08-13T10:43:25.801Z,33.30
2018-08-13T10:45:53.649Z,32.80
2018-08-13T10:51:00.169Z,32.40
2018-08-13T10:53:28.115Z,32.10
2018-08-13T10:55:55.152Z,32.70
2018-08-13T10:58:22.216Z,32.20
2018-08-13T11:00:50.074Z,32.30
2018-08-13T11:03:18.345Z,33.00
2018-08-13T11:05:45.412Z,32.90
2018-08-13T11:08:12.444Z,32.20
2018-08-13T11:13:06.646Z,32.40
2018-08-13T11:15:34.417Z,32.40
2018-08-13T11:18:01.872Z,32.30
2018-08-13T11:20:28.971Z,32.40
2018-08-13T11:22:56.361Z,32.40
2018-08-13T11:25:23.421Z,32.60
2018-08-13T11:27:50.458Z,32.60
2018-08-13T11:30:18.306Z,32.90
2018-08-13T11:35:12.511Z,32.70
2018-08-13T11:37:39.526Z,32.60
2018-08-13T11:40:06.555Z,33.00
2018-08-13T11:42:33.644Z,32.60
2018-08-13T11:45:00.677Z,33.30
2018-08-13T11:47:27.710Z,33.20
2018-08-13T11:49:56.236Z,33.40
2018-08-13T11:52:24.272Z,32.80
2018-08-13T11:54:51.268Z,32.50
2018-08-13T11:57:18.376Z,33.40
2018-08-13T11:59:45.385Z,32.60
2018-08-13T12:04:53.826Z,32.60
2018-08-13T12:07:20.841Z,32.70
2018-08-13T12:09:47.859Z,32.80
2018-08-13T12:12:14.986Z,32.90
2018-08-13T12:14:42.017Z,32.40
2018-08-13T12:17:09.099Z,32.10
2018-08-13T12:19:36.280Z,32.30
2018-08-13T12:22:03.588Z,32.30
2018-08-13T12:24:31.501Z,32.50
2018-08-13T12:26:58.611Z,32.40
2018-08-13T12:29:26.590Z,32.90
2018-08-13T12:31:53.610Z,32.80
2018-08-13T12:36:48.739Z,32.00
2018-08-13T12:39:15.758Z,31.50
2018-08-13T12:41:42.823Z,31.10
2018-08-13T12:49:05.004Z,32.10
2018-08-13T12:51:32.049Z,32.40
2018-08-13T12:53:59.791Z,32.80
2018-08-13T12:58:54.913Z,33.30
2018-08-13T13:01:23.176Z,33.40
2018-08-13T13:03:50.241Z,33.00
2018-08-13T13:06:17.976Z,32.90
2018-08-13T13:08:44.986Z,32.60
2018-08-13T13:11:12.090Z,32.80
2018-08-13T13:16:18.765Z,33.10
2018-08-13T13:18:45.788Z,33.00
2018-08-13T13:21:12.828Z,32.70
2018-08-13T13:23:40.742Z,33.00
2018-08-13T13:26:07.757Z,32.80
2018-08-13T13:31:01.999Z,32.50
2018-08-13T13:33:29.099Z,32.30
2018-08-13T13:35:56.123Z,32.20
2018-08-13T13:38:23.201Z,32.20
2018-08-13T13:43:17.305Z,31.90
2018-08-13T13:45:44.376Z,32.00
2018-08-13T13:48:11.402Z,31.90
2018-08-13T13:50:38.422Z,31.80
2018-08-13T13:53:06.365Z,32.00
2018-08-13T13:55:33.370Z,32.40
2018-08-13T13:58:01.365Z,32.10
2018-08-13T14:00:28.459Z,31.80
2018-08-13T14:07:50.756Z,31.30
2018-08-13T14:10:18.557Z,31.30
2018-08-13T14:15:24.122Z,30.80
2018-08-13T14:17:51.181Z,30.90
2018-08-13T14:20:18.204Z,29.50
2018-08-13T14:22:45.264Z,28.30
2018-08-13T14:25:13.148Z,28.20
2018-08-13T14:27:41.104Z,27.70
2018-08-13T14:30:08.179Z,26.60
2018-08-13T14:32:35.181Z,26.00
2018-08-13T14:35:02.185Z,25.90
2018-08-13T14:37:29.246Z,25.50
2018-08-13T14:39:56.311Z,25.40
2018-08-13T14:42:23.262Z,25.20
2018-08-13T14:44:50.341Z,25.30
2018-08-13T14:49:45.415Z,25.40
2018-08-13T14:52:12.795Z,25.50
2018-08-13T14:54:40.141Z,25.40
2018-08-13T14:57:07.977Z,25.40
2018-08-13T14:59:35.068Z,25.00
2018-08-13T15:04:30.029Z,24.70
2018-08-13T15:06:58.059Z,24.50
2018-08-13T15:09:25.062Z,24.60
2018-08-13T15:11:52.053Z,24.50
2018-08-13T15:14:19.108Z,24.20
2018-08-13T15:16:46.131Z,24.20
2018-08-13T15:19:13.141Z,24.10
2018-08-13T15:21:41.168Z,24.10
2018-08-13T15:24:09.162Z,24.20
2018-08-13T15:26:37.140Z,24.00
2018-08-13T15:29:04.195Z,24.00
2018-08-13T15:34:09.756Z,23.70
2018-08-13T15:36:37.501Z,23.90
2018-08-13T15:39:04.521Z,23.80
2018-08-13T15:41:32.545Z,23.60
2018-08-13T15:43:59.546Z,23.60
2018-08-13T15:46:27.503Z,23.50
2018-08-13T15:48:54.543Z,23.70
2018-08-13T15:51:21.567Z,23.60
2018-08-13T15:53:48.579Z,23.50
2018-08-13T15:56:16.501Z,23.40
2018-08-13T15:58:43.519Z,23.60
2018-08-13T16:01:11.358Z,23.60
2018-08-13T16:03:38.552Z,23.50
2018-08-13T16:06:05.551Z,23.40
2018-08-13T16:08:33.519Z,23.40
2018-08-13T16:11:00.709Z,23.20
2018-08-13T16:13:28.701Z,23.30
2018-08-13T16:15:55.745Z,23.30
2018-08-13T16:18:22.833Z,23.30
2018-08-13T16:20:49.895Z,23.40
2018-08-13T16:23:17.858Z,23.00
2018-08-13T16:25:45.023Z,22.60
2018-08-13T16:28:12.037Z,22.00
2018-08-13T16:30:39.930Z,21.50
2018-08-13T16:33:07.001Z,21.40
2018-08-13T16:35:33.999Z,21.60
2018-08-13T16:40:39.544Z,20.80
2018-08-13T16:43:07.372Z,20.40
2018-08-13T16:45:34.371Z,19.90
2018-08-13T16:48:02.381Z,19.70
2018-08-13T16:50:29.383Z,20.00
2018-08-13T16:52:57.357Z,20.40
2018-08-13T16:55:24.817Z,20.60
2018-08-13T16:57:51.825Z,20.70
2018-08-13T17:00:19.788Z,20.10
2018-08-13T17:02:46.838Z,19.80
2018-08-13T17:05:13.828Z,20.20
2018-08-13T17:07:40.840Z,20.20
2018-08-13T17:10:07.895Z,20.40
2018-08-13T17:12:34.916Z,20.30
2018-08-13T17:15:01.933Z,20.20
2018-08-13T17:17:28.971Z,20.50
2018-08-13T17:19:55.959Z,20.80
2018-08-13T17:22:22.955Z,20.90
2018-08-13T17:24:50.037Z,21.00
2018-08-13T17:27:17.920Z,21.10
2018-08-13T17:29:44.935Z,21.00
2018-08-13T17:32:12.007Z,21.00
2018-08-13T17:34:39.024Z,21.30
2018-08-13T17:39:44.563Z,21.40
2018-08-13T17:44:38.644Z,21.50
2018-08-13T17:47:05.910Z,21.50
2018-08-13T17:49:32.917Z,21.40
2018-08-13T17:51:59.918Z,21.40
2018-08-13T17:54:27.835Z,21.40
2018-08-13T17:56:54.828Z,21.40
2018-08-13T17:59:21.819Z,21.50
2018-08-13T18:01:48.913Z,21.40
2018-08-13T18:04:16.670Z,21.30
2018-08-13T18:06:43.696Z,21.00
2018-08-13T18:09:11.147Z,20.40
2018-08-13T18:11:39.115Z,20.40
2018-08-13T18:14:06.181Z,20.40
2018-08-13T18:16:33.168Z,20.20
2018-08-13T18:19:00.175Z,20.20
2018-08-13T18:21:27.186Z,20.00
2018-08-13T18:23:54.246Z,20.20
2018-08-13T18:26:21.280Z,20.20
2018-08-13T18:28:48.279Z,20.20
2018-08-13T18:31:15.391Z,20.10
2018-08-13T18:33:42.390Z,20.00
2018-08-13T18:36:09.400Z,19.80
2018-08-13T18:38:36.456Z,19.80
2018-08-13T18:41:04.021Z,19.80
2018-08-13T18:43:32.016Z,19.70
2018-08-13T18:45:59.121Z,19.80
2018-08-13T18:48:26.445Z,20.00
2018-08-13T18:50:53.436Z,20.20
2018-08-13T18:55:58.988Z,20.30
2018-08-13T18:58:26.055Z,20.40
2018-08-13T19:00:53.065Z,20.70
2018-08-13T19:03:21.337Z,20.70
2018-08-13T19:05:48.334Z,20.60
2018-08-13T19:10:47.801Z,20.50
2018-08-13T19:13:17.578Z,20.40
2018-08-13T19:15:44.596Z,20.20
2018-08-13T19:18:11.702Z,20.10
2018-08-13T19:20:38.753Z,20.30
2018-08-13T19:23:06.700Z,20.40
2018-08-13T19:33:10.777Z,20.70
2018-08-13T19:35:38.821Z,20.70
2018-08-13T19:38:05.862Z,20.60
2018-08-13T19:40:35.910Z,20.70
2018-08-13T19:48:05.381Z,20.60
2018-08-13T19:50:35.853Z,20.30
2018-08-13T19:53:09.514Z,20.00
2018-08-13T19:58:37.364Z,19.90
2018-08-13T20:01:04.420Z,19.60
2018-08-13T20:03:31.452Z,19.60
2018-08-13T20:06:04.882Z,19.30
2018-08-13T20:08:31.895Z,19.20
2018-08-13T20:10:58.903Z,19.20
2018-08-13T20:15:54.036Z,19.00
2018-08-13T20:18:21.049Z,19.10
2018-08-13T20:20:48.993Z,19.10
2018-08-13T20:23:16.892Z,19.10
2018-08-13T20:25:43.966Z,19.00
2018-08-13T20:28:11.817Z,18.90
2018-08-13T20:30:38.907Z,18.80
2018-08-13T20:33:05.944Z,18.80
2018-08-13T20:35:37.487Z,18.80
2018-08-13T20:38:04.500Z,18.80
2018-08-13T20:40:31.523Z,18.70
2018-08-13T20:42:59.410Z,18.80
2018-08-13T20:45:26.424Z,18.60
2018-08-13T20:47:54.347Z,18.70
2018-08-13T20:53:01.234Z,18.40
2018-08-13T20:55:28.371Z,18.50
2018-08-13T20:57:55.381Z,18.40
2018-08-13T21:00:22.371Z,18.40
2018-08-13T21:02:49.479Z,18.40
2018-08-13T21:05:16.495Z,18.30
2018-08-13T21:07:43.769Z,18.40
2018-08-13T21:12:51.948Z,18.20
2018-08-13T21:15:19.995Z,18.30
2018-08-13T21:17:46.987Z,18.30
2018-08-13T21:20:14.003Z,18.60
2018-08-13T21:22:41.051Z,18.80
2018-08-13T21:25:08.838Z,18.90
2018-08-13T21:27:35.847Z,18.60
2018-08-13T21:30:02.899Z,18.40
2018-08-13T21:32:29.906Z,18.20
2018-08-13T21:34:56.953Z,18.10
2018-08-13T21:37:24.086Z,18.20
2018-08-13T21:39:51.090Z,18.10
2018-08-13T21:42:18.075Z,18.00
2018-08-13T21:44:45.113Z,17.90
2018-08-13T21:47:12.147Z,17.90
2018-08-13T21:49:39.212Z,17.90
2018-08-13T21:52:06.260Z,17.90
2018-08-13T21:54:33.316Z,17.90
2018-08-13T21:57:00.308Z,17.90
2018-08-13T21:59:28.572Z,17.90
2018-08-13T22:04:26.740Z,17.90
2018-08-13T22:09:21.814Z,17.90
2018-08-13T22:11:49.418Z,17.90
2018-08-13T22:16:44.382Z,17.90
2018-08-13T22:19:12.356Z,17.90
2018-08-13T22:21:39.381Z,17.90
2018-08-13T22:24:18.214Z,18.00
2018-08-13T22:26:45.450Z,17.90
2018-08-13T22:29:12.463Z,17.80
2018-08-13T22:37:04.135Z,18.00
2018-08-13T22:39:31.503Z,18.00
2018-08-13T22:41:58.000Z,18.00
2018-08-13T22:44:25.832Z,18.10
2018-08-13T22:46:52.886Z,18.10
2018-08-13T22:49:19.883Z,18.00
2018-08-13T22:51:46.888Z,18.00
2018-08-13T22:54:14.894Z,17.90
2018-08-13T22:56:42.590Z,18.00
2018-08-13T22:59:10.440Z,17.90
2018-08-13T23:01:38.496Z,17.90
2018-08-13T23:04:06.492Z,17.90
2018-08-13T23:06:33.518Z,17.90
2018-08-13T23:09:00.577Z,18.00
2018-08-13T23:11:27.582Z,18.00
2018-08-13T23:13:54.601Z,17.90
2018-08-13T23:16:21.694Z,17.80
2018-08-13T23:18:49.302Z,17.90
2018-08-13T23:21:17.174Z,17.80
2018-08-13T23:23:45.614Z,17.90
2018-08-13T23:26:12.630Z,17.90
2018-08-13T23:28:39.743Z,17.90
2018-08-13T23:31:06.788Z,17.90
2018-08-13T23:33:33.797Z,17.80
2018-08-13T23:36:00.812Z,17.90
2018-08-13T23:38:28.752Z,17.90
2018-08-13T23:40:55.759Z,17.90
2018-08-13T23:43:22.773Z,17.90
2018-08-13T23:45:49.837Z,17.80
2018-08-13T23:48:16.852Z,17.70
2018-08-13T23:53:23.406Z,17.80
2018-08-13T23:55:50.784Z,17.90
